N370MK KJZI-KBCT
Flight info
| Callsign | N370MK |
|---|---|
| Flight time | N/A |
| Altitude | 40000 |
| Route | KIAWA2 GIPPL Q93 KENLL CPTAN3 |
| Aircraft | E55P/M-SBDFGHJ2RWY/LB2 |
Departure
| Time | N/A |
|---|---|
| Airport | Charleston Executive Airport (KJZI) |
Arrival
| Time | 2026-04-25 01:15 |
|---|---|
| Airport | Boca Raton Airport (KBCT) |
| Time | Latitude | Longitude | Altitude | Speed | Heading |
|---|---|---|---|---|---|
| 2026-04-25 00:39 | 28.86617 | -80.83181 | 39364 ft | 461 kts | 163° |
| 2026-04-25 00:39 | 28.83614 | -80.81951 | 39081 ft | 445 kts | 163° |
| 2026-04-25 00:39 | 28.80764 | -80.80788 | 38806 ft | 431 kts | 163° |
| 2026-04-25 00:40 | 28.77955 | -80.79642 | 38535 ft | 418 kts | 163° |
| 2026-04-25 00:40 | 28.75265 | -80.78545 | 38225 ft | 406 kts | 163° |
| 2026-04-25 00:40 | 28.72611 | -80.77464 | 37836 ft | 397 kts | 163° |
| 2026-04-25 00:40 | 28.70029 | -80.76413 | 37463 ft | 389 kts | 163° |
| 2026-04-25 00:41 | 28.67536 | -80.75396 | 37104 ft | 381 kts | 163° |
| 2026-04-25 00:41 | 28.65060 | -80.74388 | 36740 ft | 373 kts | 164° |
| 2026-04-25 00:41 | 28.62641 | -80.73405 | 36377 ft | 366 kts | 164° |
| 2026-04-25 00:41 | 28.60246 | -80.72433 | 35824 ft | 365 kts | 164° |
| 2026-04-25 00:42 | 28.57866 | -80.71465 | 35289 ft | 363 kts | 164° |
| 2026-04-25 00:42 | 28.55483 | -80.70496 | 34756 ft | 361 kts | 164° |
| 2026-04-25 00:42 | 28.53129 | -80.69544 | 34226 ft | 359 kts | 164° |
| 2026-04-25 00:42 | 28.50796 | -80.68594 | 33696 ft | 357 kts | 164° |
| 2026-04-25 00:43 | 28.48443 | -80.67644 | 33180 ft | 356 kts | 164° |
| 2026-04-25 00:43 | 28.46105 | -80.66696 | 32660 ft | 354 kts | 164° |
| 2026-04-25 00:43 | 28.43807 | -80.65765 | 32152 ft | 352 kts | 164° |
| 2026-04-25 00:43 | 28.41504 | -80.64832 | 31637 ft | 350 kts | 164° |
| 2026-04-25 00:44 | 28.39206 | -80.63902 | 31119 ft | 348 kts | 164° |
| 2026-04-25 00:44 | 28.36949 | -80.62987 | 30610 ft | 347 kts | 163° |
| 2026-04-25 00:44 | 28.34671 | -80.62067 | 30097 ft | 345 kts | 163° |
| 2026-04-25 00:44 | 28.32422 | -80.61158 | 29588 ft | 343 kts | 163° |
| 2026-04-25 00:45 | 28.30152 | -80.60241 | 29073 ft | 341 kts | 163° |
| 2026-04-25 00:45 | 28.27927 | -80.59342 | 28440 ft | 343 kts | 163° |
| 2026-04-25 00:45 | 28.25674 | -80.58431 | 28081 ft | 343 kts | 163° |
| 2026-04-25 00:45 | 28.23388 | -80.57510 | 27731 ft | 358 kts | 163° |
| 2026-04-25 00:46 | 28.20969 | -80.56538 | 27348 ft | 372 kts | 163° |
| 2026-04-25 00:46 | 28.18499 | -80.55540 | 26939 ft | 386 kts | 163° |
| 2026-04-25 00:46 | 28.13288 | -80.53439 | 26065 ft | 408 kts | 162° |
| 2026-04-25 00:47 | 28.10566 | -80.52344 | 25604 ft | 417 kts | 162° |
| 2026-04-25 00:47 | 28.07828 | -80.51241 | 25134 ft | 417 kts | 162° |
| 2026-04-25 00:47 | 28.05079 | -80.50135 | 24659 ft | 415 kts | 162° |
| 2026-04-25 00:47 | 28.02368 | -80.49046 | 24194 ft | 411 kts | 162° |
| 2026-04-25 00:48 | 27.99666 | -80.47960 | 23730 ft | 407 kts | 162° |
| 2026-04-25 00:48 | 27.96972 | -80.46877 | 23269 ft | 403 kts | 162° |
| 2026-04-25 00:48 | 27.94318 | -80.45812 | 22826 ft | 399 kts | 162° |
| 2026-04-25 00:48 | 27.91726 | -80.44774 | 22413 ft | 395 kts | 162° |
| 2026-04-25 00:49 | 27.89147 | -80.43739 | 22008 ft | 391 kts | 162° |
| 2026-04-25 00:49 | 27.86563 | -80.42701 | 21586 ft | 387 kts | 162° |
| 2026-04-25 00:49 | 27.84042 | -80.41692 | 21160 ft | 383 kts | 162° |
| 2026-04-25 00:49 | 27.81530 | -80.40684 | 20742 ft | 380 kts | 162° |
| 2026-04-25 00:50 | 27.79053 | -80.39691 | 20329 ft | 377 kts | 162° |
| 2026-04-25 00:50 | 27.76606 | -80.38711 | 19917 ft | 374 kts | 162° |
| 2026-04-25 00:50 | 27.74140 | -80.37725 | 19500 ft | 371 kts | 162° |
| 2026-04-25 00:50 | 27.71724 | -80.36756 | 19092 ft | 368 kts | 162° |
| 2026-04-25 00:51 | 27.69310 | -80.35792 | 18682 ft | 366 kts | 162° |
| 2026-04-25 00:51 | 27.66946 | -80.34848 | 18291 ft | 367 kts | 162° |
| 2026-04-25 00:51 | 27.64580 | -80.33696 | 17924 ft | 367 kts | 156° |
| 2026-04-25 00:51 | 27.62274 | -80.32471 | 17530 ft | 367 kts | 156° |
| 2026-04-25 00:52 | 27.59971 | -80.31248 | 17133 ft | 367 kts | 156° |
| 2026-04-25 00:52 | 27.57626 | -80.30009 | 16726 ft | 366 kts | 156° |
| 2026-04-25 00:52 | 27.55320 | -80.28790 | 16321 ft | 366 kts | 156° |
| 2026-04-25 00:52 | 27.52991 | -80.27563 | 15910 ft | 365 kts | 156° |
| 2026-04-25 00:53 | 27.50699 | -80.26352 | 15501 ft | 364 kts | 156° |
| 2026-04-25 00:53 | 27.48393 | -80.25136 | 15123 ft | 359 kts | 156° |
| 2026-04-25 00:53 | 27.46163 | -80.23962 | 14745 ft | 356 kts | 156° |
| 2026-04-25 00:53 | 27.43921 | -80.22781 | 14354 ft | 353 kts | 156° |
| 2026-04-25 00:54 | 27.41689 | -80.21606 | 13962 ft | 350 kts | 156° |
| 2026-04-25 00:54 | 27.39489 | -80.20448 | 13568 ft | 347 kts | 156° |
| 2026-04-25 00:54 | 27.37309 | -80.19304 | 13180 ft | 344 kts | 156° |
| 2026-04-25 00:54 | 27.35139 | -80.18160 | 12803 ft | 342 kts | 156° |
| 2026-04-25 00:55 | 27.32972 | -80.17025 | 12418 ft | 340 kts | 156° |
| 2026-04-25 00:55 | 27.30823 | -80.15894 | 12021 ft | 337 kts | 156° |
| 2026-04-25 00:55 | 27.28705 | -80.14780 | 11631 ft | 335 kts | 156° |
| 2026-04-25 00:55 | 27.26601 | -80.13677 | 11255 ft | 332 kts | 156° |
| 2026-04-25 00:56 | 27.24507 | -80.12614 | 10922 ft | 328 kts | 158° |
| 2026-04-25 00:56 | 27.22433 | -80.11616 | 10566 ft | 326 kts | 158° |
| 2026-04-25 00:56 | 27.20344 | -80.10605 | 10203 ft | 318 kts | 158° |
| 2026-04-25 00:56 | 27.18352 | -80.09639 | 9843 ft | 305 kts | 158° |
| 2026-04-25 00:57 | 27.16422 | -80.08704 | 9498 ft | 299 kts | 158° |
| 2026-04-25 00:57 | 27.14535 | -80.07790 | 9160 ft | 295 kts | 158° |
| 2026-04-25 00:57 | 27.12579 | -80.07156 | 8892 ft | 287 kts | 174° |
| 2026-04-25 00:57 | 27.10685 | -80.06589 | 8869 ft | 279 kts | 149° |
| 2026-04-25 00:58 | 27.09056 | -80.05452 | 8819 ft | 272 kts | 153° |
| 2026-04-25 00:58 | 27.07257 | -80.04986 | 8772 ft | 260 kts | 180° |
| 2026-04-25 00:58 | 27.05486 | -80.05015 | 8748 ft | 252 kts | 185° |
| 2026-04-25 00:58 | 27.03754 | -80.05176 | 8710 ft | 245 kts | 188° |
| 2026-04-25 00:59 | 27.02082 | -80.05406 | 8679 ft | 239 kts | 189° |
| 2026-04-25 00:59 | 27.00450 | -80.05668 | 8646 ft | 233 kts | 191° |
| 2026-04-25 00:59 | 26.98853 | -80.05941 | 8630 ft | 231 kts | 191° |
| 2026-04-25 00:59 | 26.97231 | -80.06233 | 8624 ft | 235 kts | 191° |
| 2026-04-25 01:00 | 26.95597 | -80.06530 | 8633 ft | 239 kts | 192° |
| 2026-04-25 01:00 | 26.93929 | -80.06838 | 8464 ft | 252 kts | 192° |
| 2026-04-25 01:00 | 26.92149 | -80.07171 | 8190 ft | 266 kts | 191° |
| 2026-04-25 01:00 | 26.90257 | -80.07523 | 7890 ft | 279 kts | 191° |
| 2026-04-25 01:01 | 26.88296 | -80.07885 | 7555 ft | 288 kts | 191° |
| 2026-04-25 01:01 | 26.86342 | -80.08247 | 7218 ft | 285 kts | 191° |
| 2026-04-25 01:01 | 26.84388 | -80.08609 | 6873 ft | 283 kts | 191° |
| 2026-04-25 01:01 | 26.82440 | -80.08971 | 6546 ft | 280 kts | 191° |
| 2026-04-25 01:02 | 26.80518 | -80.09328 | 6225 ft | 278 kts | 191° |
| 2026-04-25 01:02 | 26.78609 | -80.09682 | 5892 ft | 275 kts | 191° |
| 2026-04-25 01:02 | 26.76741 | -80.09822 | 5793 ft | 265 kts | 175° |
| 2026-04-25 01:02 | 26.74954 | -80.09900 | 5768 ft | 249 kts | 201° |
| 2026-04-25 01:03 | 26.73347 | -80.10459 | 5768 ft | 238 kts | 181° |
| 2026-04-25 01:03 | 26.71719 | -80.10258 | 5686 ft | 233 kts | 174° |
| 2026-04-25 01:03 | 26.70112 | -80.10045 | 5563 ft | 229 kts | 173° |
| 2026-04-25 01:03 | 26.68522 | -80.09819 | 5441 ft | 230 kts | 173° |
| 2026-04-25 01:04 | 26.66925 | -80.09590 | 5322 ft | 231 kts | 173° |
| 2026-04-25 01:04 | 26.65323 | -80.09360 | 5201 ft | 231 kts | 173° |
| 2026-04-25 01:04 | 26.63722 | -80.09131 | 5081 ft | 231 kts | 173° |
| 2026-04-25 01:04 | 26.62128 | -80.08903 | 4999 ft | 229 kts | 173° |
| 2026-04-25 01:05 | 26.60579 | -80.09010 | 4986 ft | 221 kts | 203° |
| 2026-04-25 01:05 | 26.59183 | -80.09709 | 4988 ft | 216 kts | 204° |
| 2026-04-25 01:05 | 26.57820 | -80.10367 | 4985 ft | 211 kts | 204° |
| 2026-04-25 01:05 | 26.56475 | -80.11021 | 4981 ft | 207 kts | 210° |
| 2026-04-25 01:06 | 26.55448 | -80.12064 | 4998 ft | 198 kts | 233° |
| 2026-04-25 01:06 | 26.54433 | -80.13131 | 4998 ft | 202 kts | 219° |
| 2026-04-25 01:06 | 26.53321 | -80.14120 | 4992 ft | 206 kts | 220° |
| 2026-04-25 01:06 | 26.52192 | -80.15135 | 4994 ft | 209 kts | 220° |
| 2026-04-25 01:07 | 26.51041 | -80.16167 | 4992 ft | 212 kts | 220° |
| 2026-04-25 01:07 | 26.49878 | -80.17209 | 4990 ft | 218 kts | 220° |
| 2026-04-25 01:07 | 26.48674 | -80.18286 | 4999 ft | 230 kts | 220° |
| 2026-04-25 01:07 | 26.47374 | -80.19450 | 4914 ft | 245 kts | 220° |
| 2026-04-25 01:08 | 26.46012 | -80.20672 | 4617 ft | 255 kts | 220° |
| 2026-04-25 01:08 | 26.44603 | -80.21932 | 4309 ft | 262 kts | 219° |
| 2026-04-25 01:08 | 26.43177 | -80.23210 | 3993 ft | 267 kts | 219° |
| 2026-04-25 01:08 | 26.41723 | -80.24510 | 3672 ft | 267 kts | 219° |
| 2026-04-25 01:09 | 26.40285 | -80.25796 | 3358 ft | 266 kts | 218° |
| 2026-04-25 01:09 | 26.38849 | -80.27079 | 3245 ft | 256 kts | 218° |
| 2026-04-25 01:09 | 26.37482 | -80.28297 | 3191 ft | 249 kts | 218° |
| 2026-04-25 01:09 | 26.36130 | -80.29504 | 3116 ft | 250 kts | 218° |
| 2026-04-25 01:10 | 26.34713 | -80.30656 | 2984 ft | 250 kts | 204° |
| 2026-04-25 01:10 | 26.33026 | -80.30883 | 2999 ft | 241 kts | 169° |
| 2026-04-25 01:10 | 26.31563 | -80.30054 | 2996 ft | 233 kts | 134° |
| 2026-04-25 01:10 | 26.30432 | -80.28767 | 2981 ft | 231 kts | 133° |
| 2026-04-25 01:11 | 26.29311 | -80.27485 | 2976 ft | 229 kts | 132° |
| 2026-04-25 01:11 | 26.28591 | -80.25962 | 2975 ft | 223 kts | 95° |
| 2026-04-25 01:11 | 26.28966 | -80.24350 | 2967 ft | 220 kts | 55° |
| 2026-04-25 01:11 | 26.30083 | -80.23112 | 2640 ft | 231 kts | 44° |
| 2026-04-25 01:12 | 26.30946 | -80.21635 | 2291 ft | 230 kts | 72° |
| 2026-04-25 01:12 | 26.31377 | -80.19923 | 2019 ft | 222 kts | 77° |
| 2026-04-25 01:12 | 26.31736 | -80.18306 | 1885 ft | 211 kts | 74° |
| 2026-04-25 01:12 | 26.32303 | -80.16883 | 1511 ft | 190 kts | 55° |
| 2026-04-25 01:13 | 26.33168 | -80.15913 | 1299 ft | 164 kts | 45° |
| 2026-04-25 01:13 | 26.33909 | -80.15097 | 1135 ft | 141 kts | 49° |
| 2026-04-25 01:13 | 26.34572 | -80.14340 | 814 ft | 134 kts | 49° |
| 2026-04-25 01:13 | 26.35194 | -80.13657 | 652 ft | 119 kts | 46° |
| 2026-04-25 01:14 | 26.35793 | -80.13021 | 451 ft | 117 kts | 47° |
| 2026-04-25 01:14 | 26.36397 | -80.12382 | 327 ft | 121 kts | 47° |
| 2026-04-25 01:14 | 26.36986 | -80.11722 | 159 ft | 119 kts | 49° |
| 2026-04-25 01:14 | 26.37559 | -80.11083 | 22 ft | 108 kts | 47° |
| 2026-04-25 01:15 | 26.38053 | -80.10541 | 17 ft | 90 kts | 43° |
| 2026-04-25 01:15 | 26.38344 | -80.10223 | 17 ft | 20 kts | 44° |
| 2026-04-25 01:15 | 26.38403 | -80.10212 | 17 ft | 6 kts | 297° |
| 2026-04-25 01:15 | 26.38411 | -80.10259 | 17 ft | 6 kts | 243° |
| 2026-04-25 01:16 | 26.38380 | -80.10297 | 17 ft | 6 kts | 224° |
| 2026-04-25 01:16 | 26.38345 | -80.10335 | 17 ft | 7 kts | 224° |
| 2026-04-25 01:16 | 26.38309 | -80.10373 | 17 ft | 7 kts | 223° |
| 2026-04-25 01:16 | 26.38271 | -80.10412 | 17 ft | 7 kts | 225° |
| 2026-04-25 01:17 | 26.38234 | -80.10455 | 17 ft | 7 kts | 226° |
| 2026-04-25 01:17 | 26.38195 | -80.10499 | 17 ft | 8 kts | 225° |
| 2026-04-25 01:17 | 26.38154 | -80.10544 | 17 ft | 8 kts | 224° |
| 2026-04-25 01:17 | 26.38112 | -80.10590 | 17 ft | 8 kts | 224° |
| 2026-04-25 01:18 | 26.38068 | -80.10636 | 17 ft | 8 kts | 223° |
| 2026-04-25 01:18 | 26.38023 | -80.10683 | 17 ft | 9 kts | 222° |
| 2026-04-25 01:18 | 26.37977 | -80.10735 | 17 ft | 9 kts | 226° |
| 2026-04-25 01:18 | 26.37911 | -80.10805 | 17 ft | 17 kts | 222° |
| 2026-04-25 01:19 | 26.37826 | -80.10901 | 17 ft | 17 kts | 224° |
| 2026-04-25 01:19 | 26.37770 | -80.10963 | 17 ft | 7 kts | 260° |
| 2026-04-25 01:19 | 26.37779 | -80.10989 | 17 ft | 2 kts | 300° |
| 2026-04-25 01:19 | 26.37777 | -80.11024 | 17 ft | 6 kts | 236° |
| 2026-04-25 01:20 | 26.37751 | -80.11060 | 17 ft | 4 kts | 255° |
| 2026-04-25 01:20 | 26.37761 | -80.11072 | 17 ft | 2 kts | 14° |
| 2026-04-25 01:20 | 26.37775 | -80.11065 | 17 ft | 0 kts | 40° |
| 2026-04-25 01:20 | 26.37776 | -80.11064 | 17 ft | 0 kts | 46° |